createdAt,value
2022-10-18T00:00:32.731Z,16.40
2022-10-18T00:03:04.584Z,16.30
2022-10-18T00:05:36.563Z,16.30
2022-10-18T00:08:08.521Z,16.20
2022-10-18T00:10:40.470Z,16.20
2022-10-18T00:13:12.669Z,16.40
2022-10-18T00:15:57.053Z,16.40
2022-10-18T00:18:29.908Z,16.40
2022-10-18T00:21:08.564Z,16.40
2022-10-18T00:23:40.834Z,16.30
2022-10-18T00:26:21.609Z,16.20
2022-10-18T00:28:58.973Z,16.20
2022-10-18T00:31:36.905Z,16.20
2022-10-18T00:34:13.613Z,16.10
2022-10-18T00:36:45.691Z,16.10
2022-10-18T00:39:19.600Z,16.00
2022-10-18T00:41:51.926Z,16.00
2022-10-18T00:44:26.889Z,16.00
2022-10-18T00:47:08.473Z,15.90
2022-10-18T00:49:48.608Z,16.00
2022-10-18T00:52:28.608Z,16.10
2022-10-18T00:55:01.278Z,16.00
2022-10-18T00:57:33.941Z,16.20
2022-10-18T01:00:09.911Z,16.10
2022-10-18T01:02:43.732Z,16.10
2022-10-18T01:05:17.943Z,16.10
2022-10-18T01:08:31.357Z,16.10
2022-10-18T01:11:23.690Z,16.00
2022-10-18T01:14:21.600Z,16.00
2022-10-18T01:17:05.003Z,16.00
2022-10-18T01:20:00.967Z,16.00
2022-10-18T01:22:35.735Z,15.90
2022-10-18T01:25:25.392Z,15.90
2022-10-18T01:28:32.336Z,15.80
2022-10-18T01:31:08.172Z,15.80
2022-10-18T01:33:53.872Z,15.90
2022-10-18T01:36:44.144Z,15.90
2022-10-18T01:39:21.825Z,16.00
2022-10-18T01:41:55.219Z,16.10
2022-10-18T01:44:29.687Z,16.10
2022-10-18T01:47:01.710Z,16.10
2022-10-18T01:49:34.434Z,16.10
2022-10-18T01:54:48.469Z,16.00
2022-10-18T01:57:20.328Z,16.00
2022-10-18T02:00:01.820Z,16.00
2022-10-18T02:02:46.753Z,16.10
2022-10-18T02:05:36.635Z,16.00
2022-10-18T02:08:23.424Z,16.00
2022-10-18T02:11:08.180Z,15.90
2022-10-18T02:13:55.048Z,15.80
2022-10-18T02:16:34.802Z,15.70
2022-10-18T02:19:15.878Z,15.70
2022-10-18T02:21:49.006Z,15.80
2022-10-18T02:24:23.646Z,15.90
2022-10-18T02:26:55.540Z,15.90
2022-10-18T02:29:28.179Z,15.90
2022-10-18T02:32:12.155Z,15.90
2022-10-18T02:34:57.147Z,15.90
2022-10-18T02:37:32.822Z,15.80
2022-10-18T02:40:07.715Z,15.80
2022-10-18T02:42:45.486Z,15.70
2022-10-18T02:45:17.698Z,15.80
2022-10-18T02:47:49.615Z,15.80
2022-10-18T02:50:21.558Z,15.90
2022-10-18T02:52:53.417Z,15.90
2022-10-18T02:55:25.339Z,16.00
2022-10-18T02:57:57.212Z,15.90
2022-10-18T03:00:29.123Z,15.90
2022-10-18T03:03:01.123Z,15.80
2022-10-18T03:05:32.977Z,15.80
2022-10-18T03:08:05.074Z,15.80
2022-10-18T03:10:36.979Z,15.80
2022-10-18T03:13:08.893Z,15.80
2022-10-18T03:15:40.782Z,15.80
2022-10-18T03:18:12.648Z,15.80
2022-10-18T03:20:44.551Z,15.80
2022-10-18T03:23:16.454Z,15.80
2022-10-18T03:25:48.355Z,15.80
2022-10-18T03:28:20.935Z,15.80
2022-10-18T03:30:52.934Z,15.70
2022-10-18T03:33:24.851Z,15.70
2022-10-18T03:35:56.705Z,15.70
2022-10-18T03:38:28.635Z,15.70
2022-10-18T03:41:00.630Z,15.70
2022-10-18T03:43:32.518Z,15.70
2022-10-18T03:46:04.530Z,15.70
2022-10-18T03:48:36.466Z,15.80
2022-10-18T03:51:08.438Z,15.80
2022-10-18T03:53:40.523Z,15.70
2022-10-18T03:56:12.431Z,15.80
2022-10-18T03:58:44.378Z,15.80
2022-10-18T04:01:16.295Z,15.80
2022-10-18T04:03:48.185Z,15.90
2022-10-18T04:06:20.069Z,15.90
2022-10-18T04:08:51.942Z,15.90
2022-10-18T04:11:23.813Z,15.90
2022-10-18T04:13:55.663Z,15.90
2022-10-18T04:16:27.730Z,15.80
2022-10-18T04:18:59.622Z,15.80
2022-10-18T04:21:31.521Z,15.90
2022-10-18T04:24:03.495Z,15.80
2022-10-18T04:26:35.455Z,15.90
2022-10-18T04:29:07.400Z,15.90
2022-10-18T04:31:39.326Z,15.90
2022-10-18T04:34:11.350Z,15.90
2022-10-18T04:36:43.200Z,15.80
2022-10-18T04:39:15.066Z,15.80
2022-10-18T04:41:47.061Z,15.80
2022-10-18T04:44:19.019Z,15.80
2022-10-18T04:46:50.954Z,15.90
2022-10-18T04:49:22.805Z,15.90
2022-10-18T04:51:54.701Z,15.90
2022-10-18T04:54:28.583Z,16.00
2022-10-18T04:57:01.774Z,15.80
2022-10-18T04:59:33.663Z,15.60
2022-10-18T05:02:05.596Z,15.60
2022-10-18T05:04:37.520Z,15.50
2022-10-18T05:07:09.467Z,15.40
2022-10-18T05:09:41.355Z,15.30
2022-10-18T05:12:13.240Z,15.30
2022-10-18T05:14:45.145Z,15.30
2022-10-18T05:17:17.798Z,15.30
2022-10-18T05:19:49.731Z,15.30
2022-10-18T05:22:21.556Z,15.20
2022-10-18T05:24:53.480Z,15.30
2022-10-18T05:27:25.389Z,15.30
2022-10-18T05:29:59.989Z,15.10
2022-10-18T05:32:35.083Z,15.00
2022-10-18T05:35:07.608Z,14.90
2022-10-18T05:37:39.449Z,14.80
2022-10-18T05:40:11.740Z,14.90
2022-10-18T05:42:43.531Z,14.90
2022-10-18T05:45:15.398Z,14.90
2022-10-18T05:47:47.294Z,15.00
2022-10-18T05:50:19.203Z,15.00
2022-10-18T05:52:51.099Z,15.00
2022-10-18T05:55:23.278Z,15.10
2022-10-18T05:57:55.446Z,15.10
2022-10-18T06:00:27.366Z,15.20
2022-10-18T06:03:00.435Z,15.20
2022-10-18T06:05:32.685Z,15.40
2022-10-18T06:08:07.931Z,15.40
2022-10-18T06:10:42.209Z,15.30
2022-10-18T06:13:14.170Z,15.20
2022-10-18T06:15:46.033Z,15.30
2022-10-18T06:18:17.924Z,15.60
2022-10-18T06:20:49.762Z,15.90
2022-10-18T06:23:21.676Z,16.30
2022-10-18T06:25:53.648Z,16.60
2022-10-18T06:28:25.784Z,16.80
2022-10-18T06:30:58.427Z,17.00
2022-10-18T06:33:35.261Z,17.10
2022-10-18T06:36:15.941Z,17.30
2022-10-18T06:38:48.341Z,17.30
2022-10-18T06:41:20.772Z,17.40
2022-10-18T06:43:56.872Z,17.60
2022-10-18T06:46:28.753Z,17.90
2022-10-18T06:49:00.696Z,18.20
2022-10-18T06:51:32.661Z,18.40
2022-10-18T06:54:17.372Z,18.70
2022-10-18T06:56:49.704Z,18.90
2022-10-18T06:59:21.539Z,19.10
2022-10-18T07:01:53.482Z,19.20
2022-10-18T07:04:29.368Z,19.30
2022-10-18T07:07:01.217Z,19.50
2022-10-18T07:09:33.091Z,19.60
2022-10-18T07:12:05.230Z,19.80
2022-10-18T07:14:37.069Z,20.20
2022-10-18T07:17:08.949Z,20.40
2022-10-18T07:19:40.911Z,20.70
2022-10-18T07:22:12.826Z,21.00
2022-10-18T07:24:44.679Z,21.30
2022-10-18T07:27:16.591Z,21.60
2022-10-18T07:29:49.661Z,21.90
2022-10-18T07:32:21.595Z,22.10
2022-10-18T07:34:53.442Z,22.20
2022-10-18T07:37:27.933Z,22.40
2022-10-18T07:40:02.024Z,22.40
2022-10-18T07:42:35.711Z,22.30
2022-10-18T07:45:08.674Z,22.10
2022-10-18T07:47:41.061Z,21.70
2022-10-18T07:50:13.320Z,21.20
2022-10-18T07:52:45.261Z,20.90
2022-10-18T07:55:17.224Z,21.20
2022-10-18T07:57:49.147Z,21.30
2022-10-18T08:00:21.006Z,21.50
2022-10-18T08:02:57.786Z,21.20
2022-10-18T08:05:30.020Z,20.80
2022-10-18T08:08:04.388Z,20.90
2022-10-18T08:10:39.058Z,21.10
2022-10-18T08:13:10.925Z,20.90
2022-10-18T08:15:43.143Z,21.20
2022-10-18T08:18:15.168Z,21.90
2022-10-18T08:20:47.065Z,22.40
2022-10-18T08:23:18.961Z,22.80
2022-10-18T08:25:50.792Z,23.10
2022-10-18T08:28:22.798Z,22.90
2022-10-18T08:30:54.758Z,22.50
2022-10-18T08:33:26.608Z,22.00
2022-10-18T08:36:00.117Z,21.80
2022-10-18T08:38:33.035Z,21.50
2022-10-18T08:41:38.101Z,21.10
2022-10-18T08:44:31.271Z,21.20
2022-10-18T08:47:14.850Z,21.10
2022-10-18T08:49:49.703Z,21.60
2022-10-18T08:52:28.944Z,21.70
2022-10-18T08:55:24.266Z,21.90
2022-10-18T08:57:58.157Z,22.30
2022-10-18T09:00:34.908Z,22.20
2022-10-18T09:03:37.571Z,22.60
2022-10-18T09:06:21.174Z,22.60
2022-10-18T09:09:04.728Z,22.60
2022-10-18T09:12:14.273Z,22.80
2022-10-18T09:14:55.007Z,22.60
2022-10-18T09:17:38.107Z,22.50
2022-10-18T09:20:21.858Z,22.70
2022-10-18T09:23:13.478Z,23.00
2022-10-18T09:25:53.395Z,23.10
2022-10-18T09:28:41.943Z,22.70
2022-10-18T09:31:24.423Z,22.60
2022-10-18T09:34:20.177Z,22.30
2022-10-18T09:36:52.845Z,22.30
2022-10-18T09:39:31.276Z,22.30
2022-10-18T09:42:11.469Z,22.30
2022-10-18T09:44:49.366Z,22.40
2022-10-18T09:47:39.425Z,22.80
2022-10-18T09:50:24.156Z,22.90
2022-10-18T09:53:01.761Z,22.90
2022-10-18T09:55:38.670Z,22.80
2022-10-18T09:58:11.649Z,22.80
2022-10-18T10:00:49.408Z,22.90
2022-10-18T10:03:21.318Z,23.10
2022-10-18T10:06:12.832Z,23.20
2022-10-18T10:08:49.629Z,23.40
2022-10-18T10:11:40.175Z,23.50
2022-10-18T10:17:03.635Z,24.30
2022-10-18T10:19:40.097Z,24.50
2022-10-18T10:22:14.161Z,24.80
2022-10-18T10:24:54.502Z,24.70
2022-10-18T10:28:06.748Z,24.90
2022-10-18T10:30:38.673Z,24.60
2022-10-18T10:33:38.442Z,24.60
2022-10-18T10:36:19.001Z,24.20
2022-10-18T10:39:05.267Z,24.10
2022-10-18T10:41:40.288Z,23.80
2022-10-18T10:44:20.587Z,23.70
2022-10-18T10:46:53.423Z,24.00
2022-10-18T10:49:41.465Z,24.10
2022-10-18T10:52:28.314Z,23.70
2022-10-18T10:55:23.668Z,23.30
2022-10-18T10:57:56.404Z,23.30
2022-10-18T11:00:34.475Z,23.20
2022-10-18T11:03:33.996Z,23.20
2022-10-18T11:06:22.078Z,23.10
2022-10-18T11:08:54.400Z,23.00
2022-10-18T11:11:39.127Z,23.20
2022-10-18T11:14:25.776Z,23.30
2022-10-18T11:17:29.775Z,23.50
2022-10-18T11:20:07.525Z,23.30
2022-10-18T11:23:01.473Z,23.20
2022-10-18T11:25:54.627Z,23.20
2022-10-18T11:28:26.510Z,23.20
2022-10-18T11:31:07.671Z,23.20
2022-10-18T11:34:03.950Z,23.40
2022-10-18T11:36:46.286Z,23.30
2022-10-18T11:39:54.606Z,23.30
2022-10-18T11:42:43.920Z,23.60
2022-10-18T11:45:35.213Z,23.80
2022-10-18T11:48:13.205Z,24.10
2022-10-18T11:51:08.394Z,24.30
2022-10-18T11:53:51.976Z,24.50
2022-10-18T11:56:36.059Z,24.60
2022-10-18T11:59:28.311Z,24.50
2022-10-18T12:02:18.971Z,24.60
2022-10-18T12:05:22.655Z,24.60
2022-10-18T12:08:08.407Z,24.60
2022-10-18T12:10:59.996Z,24.70
2022-10-18T12:13:52.340Z,24.70
2022-10-18T12:16:49.619Z,24.60
2022-10-18T12:19:31.076Z,24.60
2022-10-18T12:22:26.203Z,24.70
2022-10-18T12:24:58.122Z,24.80
2022-10-18T12:27:40.222Z,24.90
2022-10-18T12:30:20.615Z,25.00
2022-10-18T12:33:23.523Z,25.00
2022-10-18T12:36:22.435Z,25.00
2022-10-18T12:39:08.811Z,25.00
2022-10-18T12:41:40.772Z,25.00
2022-10-18T12:44:34.518Z,25.00
2022-10-18T12:47:06.932Z,24.90
2022-10-18T12:49:41.458Z,24.70
2022-10-18T12:52:28.930Z,24.60
2022-10-18T12:55:16.824Z,24.60
2022-10-18T12:57:52.457Z,24.60
2022-10-18T13:00:30.339Z,24.60
2022-10-18T13:03:16.683Z,24.50
2022-10-18T13:05:53.273Z,24.40
2022-10-18T13:08:30.099Z,24.40
2022-10-18T13:11:01.955Z,24.30
2022-10-18T13:14:08.789Z,24.20
2022-10-18T13:16:49.671Z,24.00
2022-10-18T13:19:27.229Z,23.90
2022-10-18T13:21:59.052Z,24.00
2022-10-18T13:25:01.869Z,23.90
2022-10-18T13:27:42.981Z,23.90
2022-10-18T13:30:21.022Z,23.90
2022-10-18T13:33:28.065Z,23.90
2022-10-18T13:36:12.103Z,24.00
2022-10-18T13:38:55.724Z,24.00
2022-10-18T13:41:43.266Z,24.00
2022-10-18T13:44:31.870Z,24.00
2022-10-18T13:47:03.630Z,24.10
2022-10-18T13:49:59.746Z,24.10
2022-10-18T13:52:40.432Z,24.00
2022-10-18T13:55:33.353Z,24.00
2022-10-18T13:58:10.840Z,24.00
2022-10-18T14:01:15.020Z,24.00
2022-10-18T14:04:24.156Z,24.10
2022-10-18T14:07:02.394Z,24.10
2022-10-18T14:09:45.081Z,24.10
2022-10-18T14:12:41.624Z,24.10
2022-10-18T14:15:23.139Z,24.10
2022-10-18T14:18:07.513Z,24.20
2022-10-18T14:21:01.505Z,24.20
2022-10-18T14:23:40.750Z,24.20
2022-10-18T14:26:21.010Z,24.10
2022-10-18T14:29:17.564Z,24.10
2022-10-18T14:31:53.499Z,24.20
2022-10-18T14:34:25.822Z,24.10
2022-10-18T14:36:57.648Z,24.10
2022-10-18T14:39:30.480Z,24.10
2022-10-18T14:42:04.758Z,24.10
2022-10-18T14:44:36.600Z,24.00
2022-10-18T14:47:26.122Z,24.00
2022-10-18T14:49:58.155Z,23.90
2022-10-18T14:52:35.647Z,23.90
2022-10-18T14:55:19.638Z,23.90
2022-10-18T14:57:51.767Z,23.90
2022-10-18T15:00:29.613Z,23.80
2022-10-18T15:03:03.902Z,23.80
2022-10-18T15:05:35.777Z,23.70
2022-10-18T15:08:09.877Z,23.50
2022-10-18T15:10:41.841Z,23.50
2022-10-18T15:13:14.925Z,23.50
2022-10-18T15:15:47.312Z,23.50
2022-10-18T15:18:24.893Z,23.50
2022-10-18T15:21:22.918Z,23.40
2022-10-18T15:23:55.422Z,23.30
2022-10-18T15:26:30.080Z,23.10
2022-10-18T15:29:04.589Z,23.10
2022-10-18T15:31:42.988Z,23.10
2022-10-18T15:34:24.691Z,23.00
2022-10-18T15:36:57.067Z,22.90
2022-10-18T15:39:32.994Z,22.80
2022-10-18T15:42:05.563Z,22.70
2022-10-18T15:44:51.290Z,22.60
2022-10-18T15:47:24.931Z,22.40
2022-10-18T15:49:58.442Z,22.30
2022-10-18T15:52:38.859Z,22.30
2022-10-18T15:55:29.393Z,22.10
2022-10-18T15:58:13.282Z,22.10
2022-10-18T16:00:46.080Z,22.00
2022-10-18T16:03:19.646Z,21.90
2022-10-18T16:05:56.047Z,21.90
2022-10-18T16:08:30.708Z,21.80
2022-10-18T16:11:02.699Z,21.80
2022-10-18T16:13:34.815Z,21.70
2022-10-18T16:16:06.997Z,21.70
2022-10-18T16:18:38.933Z,21.60
2022-10-18T16:21:26.032Z,21.30
2022-10-18T16:23:58.636Z,21.20
2022-10-18T16:26:30.683Z,21.10
2022-10-18T16:29:02.836Z,21.00
2022-10-18T16:31:34.918Z,20.80
2022-10-18T16:34:07.289Z,20.70
2022-10-18T16:36:39.642Z,20.50
2022-10-18T16:39:16.993Z,20.30
2022-10-18T16:41:49.443Z,20.20
2022-10-18T16:44:21.363Z,20.30
2022-10-18T16:46:54.159Z,20.20
2022-10-18T16:49:28.091Z,20.30
2022-10-18T16:52:00.110Z,20.20
2022-10-18T16:54:32.530Z,20.20
2022-10-18T16:57:04.478Z,20.00
2022-10-18T16:59:36.396Z,19.90
2022-10-18T17:02:09.538Z,19.90
2022-10-18T17:04:42.304Z,19.90
2022-10-18T17:07:24.483Z,19.80
2022-10-18T17:09:56.386Z,19.70
2022-10-18T17:12:28.323Z,19.70
2022-10-18T17:15:00.170Z,19.60
2022-10-18T17:17:32.308Z,19.60
2022-10-18T17:20:06.458Z,19.50
2022-10-18T17:22:38.346Z,19.40
2022-10-18T17:25:10.309Z,19.40
2022-10-18T17:27:42.682Z,19.30
2022-10-18T17:30:15.220Z,19.20
2022-10-18T17:32:47.118Z,19.10
2022-10-18T17:35:19.067Z,19.10
2022-10-18T17:37:53.562Z,19.10
2022-10-18T17:40:25.492Z,19.00
2022-10-18T17:42:57.684Z,19.00
2022-10-18T17:45:29.545Z,18.90
2022-10-18T17:48:01.556Z,18.90
2022-10-18T17:50:33.428Z,18.90
2022-10-18T17:53:05.246Z,19.00
2022-10-18T17:55:37.128Z,19.00
2022-10-18T17:58:09.088Z,18.90
2022-10-18T18:00:40.919Z,18.80
2022-10-18T18:03:13.545Z,18.80
2022-10-18T18:05:46.933Z,18.70
2022-10-18T18:08:18.784Z,18.70
2022-10-18T18:10:55.390Z,18.70
2022-10-18T18:13:27.255Z,18.70
2022-10-18T18:16:20.867Z,18.80
2022-10-18T18:18:54.943Z,18.80
2022-10-18T18:21:27.596Z,18.80
2022-10-18T18:23:59.794Z,18.70
2022-10-18T18:26:33.438Z,18.70
2022-10-18T18:29:05.334Z,18.60
2022-10-18T18:31:40.097Z,18.60
2022-10-18T18:34:13.638Z,18.50
2022-10-18T18:36:45.551Z,18.50
2022-10-18T18:39:35.942Z,18.40
2022-10-18T18:42:07.814Z,18.40
2022-10-18T18:44:39.829Z,18.40
2022-10-18T18:47:13.389Z,18.20
2022-10-18T18:49:45.461Z,18.20
2022-10-18T18:52:17.405Z,18.00
2022-10-18T18:54:49.302Z,18.10
2022-10-18T18:57:21.214Z,18.10
2022-10-18T18:59:53.163Z,18.00
2022-10-18T19:02:25.101Z,18.00
2022-10-18T19:04:56.995Z,17.90
2022-10-18T19:07:28.904Z,17.90
2022-10-18T19:10:00.792Z,17.90
2022-10-18T19:12:32.686Z,17.90
2022-10-18T19:15:04.963Z,17.90
2022-10-18T19:17:37.098Z,17.90
2022-10-18T19:20:12.353Z,17.90
2022-10-18T19:22:46.899Z,17.90
2022-10-18T19:25:21.174Z,17.90
2022-10-18T19:27:55.743Z,17.90
2022-10-18T19:30:28.076Z,17.90
2022-10-18T19:33:04.759Z,17.90
2022-10-18T19:35:37.902Z,17.80
2022-10-18T19:38:10.508Z,17.80
2022-10-18T19:40:42.444Z,17.70
2022-10-18T19:43:15.702Z,17.70
2022-10-18T19:45:48.151Z,17.60
2022-10-18T19:48:20.722Z,17.60
2022-10-18T19:50:53.198Z,17.60
2022-10-18T19:53:25.724Z,17.60
2022-10-18T19:56:00.126Z,17.50
2022-10-18T19:58:33.245Z,17.50
2022-10-18T20:01:06.869Z,17.50
2022-10-18T20:03:40.269Z,17.50
2022-10-18T20:06:13.198Z,17.60
2022-10-18T20:08:45.371Z,17.60
2022-10-18T20:11:20.729Z,17.60
2022-10-18T20:13:53.103Z,17.60
2022-10-18T20:16:28.728Z,17.60
2022-10-18T20:19:03.350Z,17.60
2022-10-18T20:21:37.075Z,17.60
2022-10-18T20:24:11.318Z,17.50
2022-10-18T20:26:44.145Z,17.50
2022-10-18T20:29:16.663Z,17.50
2022-10-18T20:31:49.110Z,17.50
2022-10-18T20:34:26.174Z,17.40
2022-10-18T20:36:58.664Z,17.40
2022-10-18T20:39:30.835Z,17.40
2022-10-18T20:42:02.878Z,17.40
2022-10-18T20:44:34.904Z,17.40
2022-10-18T20:47:06.792Z,17.40
2022-10-18T20:49:38.978Z,17.30
2022-10-18T20:52:10.935Z,17.30
2022-10-18T20:54:42.846Z,17.40
2022-10-18T20:57:14.757Z,17.40
2022-10-18T20:59:48.882Z,17.40
2022-10-18T21:02:20.743Z,17.30
2022-10-18T21:04:52.683Z,17.20
2022-10-18T21:07:24.634Z,17.10
2022-10-18T21:09:56.563Z,17.10
2022-10-18T21:12:29.128Z,17.00
2022-10-18T21:15:01.214Z,17.10
2022-10-18T21:17:33.082Z,17.10
2022-10-18T21:20:05.766Z,17.10
2022-10-18T21:22:37.618Z,17.10
2022-10-18T21:25:10.364Z,17.10
2022-10-18T21:27:42.241Z,17.10
2022-10-18T21:30:14.260Z,17.10
2022-10-18T21:32:46.250Z,17.10
2022-10-18T21:35:18.051Z,17.10
2022-10-18T21:37:49.907Z,17.20
2022-10-18T21:40:21.875Z,17.10
2022-10-18T21:42:53.725Z,17.10
2022-10-18T21:45:25.748Z,17.10
2022-10-18T21:47:57.689Z,17.10
2022-10-18T21:50:29.528Z,17.00
2022-10-18T21:53:01.492Z,17.00
2022-10-18T21:55:36.105Z,16.90
2022-10-18T21:58:08.085Z,16.90
2022-10-18T22:00:40.471Z,16.80
2022-10-18T22:03:15.946Z,16.80
2022-10-18T22:05:56.327Z,16.80
2022-10-18T22:08:29.185Z,16.80
2022-10-18T22:11:01.822Z,16.70
2022-10-18T22:13:33.755Z,16.70
2022-10-18T22:16:06.685Z,16.70
2022-10-18T22:18:38.563Z,16.70
2022-10-18T22:21:13.466Z,16.70
2022-10-18T22:23:47.911Z,16.60
2022-10-18T22:26:32.624Z,16.60
2022-10-18T22:29:13.962Z,16.50
2022-10-18T22:31:47.510Z,16.50
2022-10-18T22:34:22.691Z,16.60
2022-10-18T22:36:55.127Z,16.60
2022-10-18T22:39:26.990Z,16.50
2022-10-18T22:41:58.796Z,16.40
2022-10-18T22:44:30.634Z,16.40
2022-10-18T22:47:02.815Z,16.40
2022-10-18T22:49:34.622Z,16.40
2022-10-18T22:52:06.497Z,16.40
2022-10-18T22:54:38.342Z,16.50
2022-10-18T22:57:10.158Z,16.40
2022-10-18T22:59:41.994Z,16.50
2022-10-18T23:02:13.996Z,16.40
2022-10-18T23:04:45.850Z,16.40
2022-10-18T23:07:17.684Z,16.40
2022-10-18T23:09:49.590Z,16.30
2022-10-18T23:12:21.418Z,16.30
2022-10-18T23:14:53.382Z,16.30
2022-10-18T23:17:25.282Z,16.30
2022-10-18T23:19:57.135Z,16.30
2022-10-18T23:22:28.963Z,16.30
2022-10-18T23:25:00.871Z,16.30
2022-10-18T23:27:32.798Z,16.30
2022-10-18T23:30:23.715Z,16.30
2022-10-18T23:32:55.711Z,16.20
2022-10-18T23:35:28.823Z,16.10
2022-10-18T23:38:00.707Z,16.20
2022-10-18T23:40:32.551Z,16.20
2022-10-18T23:43:04.476Z,16.10
2022-10-18T23:45:36.415Z,16.20
2022-10-18T23:48:08.555Z,16.20
2022-10-18T23:50:40.432Z,16.10
2022-10-18T23:53:12.376Z,16.10
2022-10-18T23:55:58.679Z,16.10
2022-10-18T23:58:32.399Z,16.10
